sensor_id;sensor_type;location;lat;lon;timestamp;P1;durP1;ratioP1;P2;durP2;ratioP2
3050;SDS011;1535;51.098;6.414;2023-04-25T00:00:58;7.00;;;6.80;;
3050;SDS011;1535;51.098;6.414;2023-04-25T00:03:26;7.40;;;7.20;;
3050;SDS011;1535;51.098;6.414;2023-04-25T00:05:54;11.20;;;7.00;;
3050;SDS011;1535;51.098;6.414;2023-04-25T00:08:22;6.57;;;6.37;;
3050;SDS011;1535;51.098;6.414;2023-04-25T00:10:50;6.57;;;6.37;;
3050;SDS011;1535;51.098;6.414;2023-04-25T00:13:17;7.13;;;6.93;;
3050;SDS011;1535;51.098;6.414;2023-04-25T00:15:44;7.30;;;7.10;;
3050;SDS011;1535;51.098;6.414;2023-04-25T00:18:13;7.43;;;7.23;;
3050;SDS011;1535;51.098;6.414;2023-04-25T00:20:42;7.07;;;6.87;;
3050;SDS011;1535;51.098;6.414;2023-04-25T00:23:11;12.47;;;11.40;;
3050;SDS011;1535;51.098;6.414;2023-04-25T00:25:42;7.70;;;7.40;;
3050;SDS011;1535;51.098;6.414;2023-04-25T00:28:10;7.17;;;6.97;;
3050;SDS011;1535;51.098;6.414;2023-04-25T00:30:37;6.90;;;6.70;;
3050;SDS011;1535;51.098;6.414;2023-04-25T00:33:05;7.10;;;6.90;;
3050;SDS011;1535;51.098;6.414;2023-04-25T00:35:32;7.30;;;7.10;;
3050;SDS011;1535;51.098;6.414;2023-04-25T00:38:01;9.03;;;8.73;;
3050;SDS011;1535;51.098;6.414;2023-04-25T00:40:29;8.00;;;7.70;;
3050;SDS011;1535;51.098;6.414;2023-04-25T00:42:55;7.30;;;7.10;;
3050;SDS011;1535;51.098;6.414;2023-04-25T00:45:24;8.63;;;8.33;;
3050;SDS011;1535;51.098;6.414;2023-04-25T00:47:54;7.67;;;7.40;;
3050;SDS011;1535;51.098;6.414;2023-04-25T00:50:21;7.40;;;7.20;;
3050;SDS011;1535;51.098;6.414;2023-04-25T00:52:48;8.53;;;8.13;;
3050;SDS011;1535;51.098;6.414;2023-04-25T00:55:18;6.53;;;6.33;;
3050;SDS011;1535;51.098;6.414;2023-04-25T00:57:46;6.57;;;6.30;;
3050;SDS011;1535;51.098;6.414;2023-04-25T01:00:14;13.13;;;8.20;;
3050;SDS011;1535;51.098;6.414;2023-04-25T01:02:41;6.90;;;6.70;;
3050;SDS011;1535;51.098;6.414;2023-04-25T01:05:09;6.30;;;6.10;;
3050;SDS011;1535;51.098;6.414;2023-04-25T01:07:37;5.73;;;5.53;;
3050;SDS011;1535;51.098;6.414;2023-04-25T01:10:04;7.27;;;6.97;;
3050;SDS011;1535;51.098;6.414;2023-04-25T01:12:33;9.00;;;8.50;;
3050;SDS011;1535;51.098;6.414;2023-04-25T01:15:00;10.30;;;9.70;;
3050;SDS011;1535;51.098;6.414;2023-04-25T01:17:28;6.23;;;6.03;;
3050;SDS011;1535;51.098;6.414;2023-04-25T01:19:56;6.43;;;5.90;;
3050;SDS011;1535;51.098;6.414;2023-04-25T01:22:24;7.03;;;6.70;;
3050;SDS011;1535;51.098;6.414;2023-04-25T01:24:51;6.93;;;6.63;;
3050;SDS011;1535;51.098;6.414;2023-04-25T01:27:19;6.70;;;6.50;;
3050;SDS011;1535;51.098;6.414;2023-04-25T01:29:47;6.17;;;5.97;;
3050;SDS011;1535;51.098;6.414;2023-04-25T01:32:15;7.03;;;6.53;;
3050;SDS011;1535;51.098;6.414;2023-04-25T01:34:43;5.67;;;5.40;;
3050;SDS011;1535;51.098;6.414;2023-04-25T01:37:10;6.33;;;6.13;;
3050;SDS011;1535;51.098;6.414;2023-04-25T01:39:39;5.93;;;5.73;;
3050;SDS011;1535;51.098;6.414;2023-04-25T01:42:06;6.40;;;6.20;;
3050;SDS011;1535;51.098;6.414;2023-04-25T01:44:34;5.87;;;5.67;;
3050;SDS011;1535;51.098;6.414;2023-04-25T01:47:00;6.80;;;6.50;;
3050;SDS011;1535;51.098;6.414;2023-04-25T01:49:27;5.90;;;5.70;;
3050;SDS011;1535;51.098;6.414;2023-04-25T01:51:54;8.23;;;6.90;;
3050;SDS011;1535;51.098;6.414;2023-04-25T01:54:21;5.93;;;5.73;;
3050;SDS011;1535;51.098;6.414;2023-04-25T01:56:51;7.50;;;6.97;;
3050;SDS011;1535;51.098;6.414;2023-04-25T01:59:18;6.13;;;5.93;;
3050;SDS011;1535;51.098;6.414;2023-04-25T02:01:47;6.00;;;5.80;;
3050;SDS011;1535;51.098;6.414;2023-04-25T02:04:14;5.90;;;5.70;;
3050;SDS011;1535;51.098;6.414;2023-04-25T02:06:41;6.43;;;6.20;;
3050;SDS011;1535;51.098;6.414;2023-04-25T02:09:08;6.90;;;6.70;;
3050;SDS011;1535;51.098;6.414;2023-04-25T02:11:35;6.87;;;6.67;;
3050;SDS011;1535;51.098;6.414;2023-04-25T02:14:04;6.60;;;6.40;;
3050;SDS011;1535;51.098;6.414;2023-04-25T02:16:31;7.20;;;7.00;;
3050;SDS011;1535;51.098;6.414;2023-04-25T02:18:58;6.70;;;6.50;;
3050;SDS011;1535;51.098;6.414;2023-04-25T02:21:25;6.70;;;6.50;;
3050;SDS011;1535;51.098;6.414;2023-04-25T02:23:51;6.77;;;6.57;;
3050;SDS011;1535;51.098;6.414;2023-04-25T02:26:18;7.77;;;7.50;;
3050;SDS011;1535;51.098;6.414;2023-04-25T02:28:45;7.10;;;6.90;;
3050;SDS011;1535;51.098;6.414;2023-04-25T02:31:15;7.73;;;7.43;;
3050;SDS011;1535;51.098;6.414;2023-04-25T02:33:43;6.77;;;6.57;;
3050;SDS011;1535;51.098;6.414;2023-04-25T02:36:10;7.07;;;6.87;;
3050;SDS011;1535;51.098;6.414;2023-04-25T02:38:38;7.20;;;7.00;;
3050;SDS011;1535;51.098;6.414;2023-04-25T02:41:06;7.20;;;7.00;;
3050;SDS011;1535;51.098;6.414;2023-04-25T02:43:33;7.70;;;7.40;;
3050;SDS011;1535;51.098;6.414;2023-04-25T02:46:00;7.03;;;6.83;;
3050;SDS011;1535;51.098;6.414;2023-04-25T02:48:28;7.10;;;6.90;;
3050;SDS011;1535;51.098;6.414;2023-04-25T02:50:55;7.50;;;7.30;;
3050;SDS011;1535;51.098;6.414;2023-04-25T02:53:23;7.07;;;6.87;;
3050;SDS011;1535;51.098;6.414;2023-04-25T02:55:50;7.00;;;6.77;;
3050;SDS011;1535;51.098;6.414;2023-04-25T02:58:19;6.93;;;6.73;;
3050;SDS011;1535;51.098;6.414;2023-04-25T03:00:46;7.20;;;7.00;;
3050;SDS011;1535;51.098;6.414;2023-04-25T03:03:12;7.70;;;7.40;;
3050;SDS011;1535;51.098;6.414;2023-04-25T03:05:43;8.03;;;7.63;;
3050;SDS011;1535;51.098;6.414;2023-04-25T03:08:12;6.70;;;6.50;;
3050;SDS011;1535;51.098;6.414;2023-04-25T03:10:39;6.73;;;6.53;;
3050;SDS011;1535;51.098;6.414;2023-04-25T03:13:07;6.90;;;6.70;;
3050;SDS011;1535;51.098;6.414;2023-04-25T03:15:34;7.20;;;7.00;;
3050;SDS011;1535;51.098;6.414;2023-04-25T03:18:01;6.50;;;6.30;;
3050;SDS011;1535;51.098;6.414;2023-04-25T03:20:28;6.83;;;6.57;;
3050;SDS011;1535;51.098;6.414;2023-04-25T03:22:57;6.20;;;6.00;;
3050;SDS011;1535;51.098;6.414;2023-04-25T03:25:23;7.40;;;6.90;;
3050;SDS011;1535;51.098;6.414;2023-04-25T03:27:50;5.80;;;5.60;;
3050;SDS011;1535;51.098;6.414;2023-04-25T03:30:17;6.30;;;6.10;;
3050;SDS011;1535;51.098;6.414;2023-04-25T03:32:44;6.13;;;5.93;;
3050;SDS011;1535;51.098;6.414;2023-04-25T03:35:11;6.97;;;6.67;;
3050;SDS011;1535;51.098;6.414;2023-04-25T03:37:38;6.30;;;6.10;;
3050;SDS011;1535;51.098;6.414;2023-04-25T03:40:08;5.90;;;5.70;;
3050;SDS011;1535;51.098;6.414;2023-04-25T03:42:37;6.40;;;6.20;;
3050;SDS011;1535;51.098;6.414;2023-04-25T03:45:05;5.47;;;5.27;;
3050;SDS011;1535;51.098;6.414;2023-04-25T03:47:32;5.80;;;5.60;;
3050;SDS011;1535;51.098;6.414;2023-04-25T03:49:59;6.70;;;6.50;;
3050;SDS011;1535;51.098;6.414;2023-04-25T03:52:27;9.10;;;8.50;;
3050;SDS011;1535;51.098;6.414;2023-04-25T03:54:54;6.37;;;6.17;;
3050;SDS011;1535;51.098;6.414;2023-04-25T03:57:22;6.73;;;6.53;;
3050;SDS011;1535;51.098;6.414;2023-04-25T03:59:50;7.10;;;6.90;;
3050;SDS011;1535;51.098;6.414;2023-04-25T04:02:17;6.57;;;6.37;;
3050;SDS011;1535;51.098;6.414;2023-04-25T04:04:44;7.20;;;7.00;;
3050;SDS011;1535;51.098;6.414;2023-04-25T04:07:11;6.97;;;6.77;;
3050;SDS011;1535;51.098;6.414;2023-04-25T04:09:38;6.50;;;6.30;;
3050;SDS011;1535;51.098;6.414;2023-04-25T04:12:05;7.07;;;6.87;;
3050;SDS011;1535;51.098;6.414;2023-04-25T04:14:35;7.10;;;6.90;;
3050;SDS011;1535;51.098;6.414;2023-04-25T04:17:02;7.87;;;7.50;;
3050;SDS011;1535;51.098;6.414;2023-04-25T04:19:28;6.97;;;6.77;;
3050;SDS011;1535;51.098;6.414;2023-04-25T04:21:57;7.10;;;6.90;;
3050;SDS011;1535;51.098;6.414;2023-04-25T04:24:25;6.47;;;6.27;;
3050;SDS011;1535;51.098;6.414;2023-04-25T04:26:53;6.40;;;6.20;;
3050;SDS011;1535;51.098;6.414;2023-04-25T04:29:21;6.63;;;6.43;;
3050;SDS011;1535;51.098;6.414;2023-04-25T04:31:50;6.70;;;6.50;;
3050;SDS011;1535;51.098;6.414;2023-04-25T04:34:19;6.67;;;6.47;;
3050;SDS011;1535;51.098;6.414;2023-04-25T04:36:46;6.40;;;6.20;;
3050;SDS011;1535;51.098;6.414;2023-04-25T04:39:13;6.90;;;6.70;;
3050;SDS011;1535;51.098;6.414;2023-04-25T04:41:41;6.57;;;6.37;;
3050;SDS011;1535;51.098;6.414;2023-04-25T04:44:08;10.33;;;7.83;;
3050;SDS011;1535;51.098;6.414;2023-04-25T04:46:36;6.13;;;5.93;;
3050;SDS011;1535;51.098;6.414;2023-04-25T04:49:08;6.07;;;5.87;;
3050;SDS011;1535;51.098;6.414;2023-04-25T04:51:36;7.27;;;6.73;;
3050;SDS011;1535;51.098;6.414;2023-04-25T04:54:03;6.87;;;6.57;;
3050;SDS011;1535;51.098;6.414;2023-04-25T04:56:30;6.50;;;6.30;;
3050;SDS011;1535;51.098;6.414;2023-04-25T04:58:58;6.73;;;6.23;;
3050;SDS011;1535;51.098;6.414;2023-04-25T05:01:25;6.30;;;6.10;;
3050;SDS011;1535;51.098;6.414;2023-04-25T05:03:52;6.33;;;6.13;;
3050;SDS011;1535;51.098;6.414;2023-04-25T05:06:26;10.10;;;6.20;;
3050;SDS011;1535;51.098;6.414;2023-04-25T05:08:53;6.00;;;5.80;;
3050;SDS011;1535;51.098;6.414;2023-04-25T05:11:21;6.20;;;6.00;;
3050;SDS011;1535;51.098;6.414;2023-04-25T05:13:51;5.67;;;5.47;;
3050;SDS011;1535;51.098;6.414;2023-04-25T05:16:18;7.33;;;6.77;;
3050;SDS011;1535;51.098;6.414;2023-04-25T05:18:45;7.00;;;6.70;;
3050;SDS011;1535;51.098;6.414;2023-04-25T05:21:13;6.70;;;6.40;;
3050;SDS011;1535;51.098;6.414;2023-04-25T05:23:41;6.40;;;6.03;;
3050;SDS011;1535;51.098;6.414;2023-04-25T05:26:08;6.10;;;5.90;;
3050;SDS011;1535;51.098;6.414;2023-04-25T05:28:38;7.83;;;7.43;;
3050;SDS011;1535;51.098;6.414;2023-04-25T05:31:07;14.73;;;8.50;;
3050;SDS011;1535;51.098;6.414;2023-04-25T05:33:35;7.97;;;7.67;;
3050;SDS011;1535;51.098;6.414;2023-04-25T05:36:02;6.27;;;5.97;;
3050;SDS011;1535;51.098;6.414;2023-04-25T05:38:29;17.40;;;7.20;;
3050;SDS011;1535;51.098;6.414;2023-04-25T05:40:57;7.43;;;6.63;;
3050;SDS011;1535;51.098;6.414;2023-04-25T05:43:26;6.63;;;6.20;;
3050;SDS011;1535;51.098;6.414;2023-04-25T05:45:52;12.03;;;7.73;;
3050;SDS011;1535;51.098;6.414;2023-04-25T05:48:19;14.03;;;7.50;;
3050;SDS011;1535;51.098;6.414;2023-04-25T05:50:47;6.03;;;5.80;;
3050;SDS011;1535;51.098;6.414;2023-04-25T05:53:14;5.87;;;5.40;;
3050;SDS011;1535;51.098;6.414;2023-04-25T05:55:41;7.73;;;6.20;;
3050;SDS011;1535;51.098;6.414;2023-04-25T05:58:09;3.90;;;3.80;;
3050;SDS011;1535;51.098;6.414;2023-04-25T06:00:36;4.93;;;4.73;;
3050;SDS011;1535;51.098;6.414;2023-04-25T06:03:03;6.47;;;6.17;;
3050;SDS011;1535;51.098;6.414;2023-04-25T06:05:29;17.20;;;4.80;;
3050;SDS011;1535;51.098;6.414;2023-04-25T06:07:57;5.70;;;5.23;;
3050;SDS011;1535;51.098;6.414;2023-04-25T06:10:24;7.70;;;5.80;;
3050;SDS011;1535;51.098;6.414;2023-04-25T06:12:51;6.70;;;6.30;;
3050;SDS011;1535;51.098;6.414;2023-04-25T06:15:19;7.50;;;7.10;;
3050;SDS011;1535;51.098;6.414;2023-04-25T06:17:46;7.00;;;6.70;;
3050;SDS011;1535;51.098;6.414;2023-04-25T06:20:14;6.10;;;5.90;;
3050;SDS011;1535;51.098;6.414;2023-04-25T06:22:41;6.90;;;6.70;;
3050;SDS011;1535;51.098;6.414;2023-04-25T06:25:08;7.17;;;6.83;;
3050;SDS011;1535;51.098;6.414;2023-04-25T06:27:35;9.00;;;8.17;;
3050;SDS011;1535;51.098;6.414;2023-04-25T06:30:02;9.87;;;9.30;;
3050;SDS011;1535;51.098;6.414;2023-04-25T06:32:31;9.90;;;9.20;;
3050;SDS011;1535;51.098;6.414;2023-04-25T06:34:59;10.43;;;9.93;;
3050;SDS011;1535;51.098;6.414;2023-04-25T06:37:26;12.90;;;9.53;;
3050;SDS011;1535;51.098;6.414;2023-04-25T06:39:53;9.93;;;9.43;;
3050;SDS011;1535;51.098;6.414;2023-04-25T06:42:20;10.70;;;10.20;;
3050;SDS011;1535;51.098;6.414;2023-04-25T06:44:46;11.50;;;10.67;;
3050;SDS011;1535;51.098;6.414;2023-04-25T06:47:13;13.40;;;12.20;;
3050;SDS011;1535;51.098;6.414;2023-04-25T06:49:41;11.17;;;10.67;;
3050;SDS011;1535;51.098;6.414;2023-04-25T06:52:08;40.67;;;12.10;;
3050;SDS011;1535;51.098;6.414;2023-04-25T06:54:35;13.30;;;12.53;;
3050;SDS011;1535;51.098;6.414;2023-04-25T06:57:02;13.10;;;12.23;;
3050;SDS011;1535;51.098;6.414;2023-04-25T06:59:30;12.57;;;11.90;;
3050;SDS011;1535;51.098;6.414;2023-04-25T07:01:58;15.30;;;14.27;;
3050;SDS011;1535;51.098;6.414;2023-04-25T07:04:25;12.40;;;11.67;;
3050;SDS011;1535;51.098;6.414;2023-04-25T07:06:53;13.80;;;12.80;;
3050;SDS011;1535;51.098;6.414;2023-04-25T07:09:20;13.93;;;13.23;;
3050;SDS011;1535;51.098;6.414;2023-04-25T07:11:46;13.27;;;12.67;;
3050;SDS011;1535;51.098;6.414;2023-04-25T07:14:13;13.27;;;12.67;;
3050;SDS011;1535;51.098;6.414;2023-04-25T07:16:40;15.77;;;14.43;;
3050;SDS011;1535;51.098;6.414;2023-04-25T07:19:07;15.30;;;14.23;;
3050;SDS011;1535;51.098;6.414;2023-04-25T07:21:34;15.50;;;14.60;;
3050;SDS011;1535;51.098;6.414;2023-04-25T07:24:02;15.53;;;14.50;;
3050;SDS011;1535;51.098;6.414;2023-04-25T07:26:30;15.00;;;14.20;;
3050;SDS011;1535;51.098;6.414;2023-04-25T07:28:56;15.90;;;15.00;;
3050;SDS011;1535;51.098;6.414;2023-04-25T07:31:23;17.40;;;15.63;;
3050;SDS011;1535;51.098;6.414;2023-04-25T07:33:50;15.37;;;14.57;;
3050;SDS011;1535;51.098;6.414;2023-04-25T07:36:20;14.97;;;14.20;;
3050;SDS011;1535;51.098;6.414;2023-04-25T07:38:48;16.00;;;15.20;;
3050;SDS011;1535;51.098;6.414;2023-04-25T07:41:16;14.90;;;14.20;;
3050;SDS011;1535;51.098;6.414;2023-04-25T07:43:42;16.63;;;15.10;;
3050;SDS011;1535;51.098;6.414;2023-04-25T07:46:10;15.70;;;14.90;;
3050;SDS011;1535;51.098;6.414;2023-04-25T07:48:36;16.97;;;16.07;;
3050;SDS011;1535;51.098;6.414;2023-04-25T07:51:03;16.87;;;15.97;;
3050;SDS011;1535;51.098;6.414;2023-04-25T07:53:30;17.00;;;16.10;;
3050;SDS011;1535;51.098;6.414;2023-04-25T07:55:59;17.20;;;16.00;;
3050;SDS011;1535;51.098;6.414;2023-04-25T07:58:28;17.53;;;16.33;;
3050;SDS011;1535;51.098;6.414;2023-04-25T08:00:55;18.57;;;17.10;;
3050;SDS011;1535;51.098;6.414;2023-04-25T08:03:22;19.97;;;17.70;;
3050;SDS011;1535;51.098;6.414;2023-04-25T08:05:49;16.40;;;15.60;;
3050;SDS011;1535;51.098;6.414;2023-04-25T08:08:16;17.07;;;16.20;;
3050;SDS011;1535;51.098;6.414;2023-04-25T08:10:44;18.63;;;17.63;;
3050;SDS011;1535;51.098;6.414;2023-04-25T08:13:13;23.83;;;17.70;;
3050;SDS011;1535;51.098;6.414;2023-04-25T08:15:41;17.93;;;16.90;;
3050;SDS011;1535;51.098;6.414;2023-04-25T08:18:10;24.83;;;17.40;;
3050;SDS011;1535;51.098;6.414;2023-04-25T08:20:38;16.50;;;15.70;;
3050;SDS011;1535;51.098;6.414;2023-04-25T08:23:07;17.00;;;16.00;;
3050;SDS011;1535;51.098;6.414;2023-04-25T08:25:35;17.77;;;16.67;;
3050;SDS011;1535;51.098;6.414;2023-04-25T08:28:03;16.80;;;16.00;;
3050;SDS011;1535;51.098;6.414;2023-04-25T08:30:29;17.53;;;16.53;;
3050;SDS011;1535;51.098;6.414;2023-04-25T08:32:57;17.50;;;16.50;;
3050;SDS011;1535;51.098;6.414;2023-04-25T08:35:25;17.07;;;16.20;;
3050;SDS011;1535;51.098;6.414;2023-04-25T08:37:52;18.50;;;16.90;;
3050;SDS011;1535;51.098;6.414;2023-04-25T08:40:19;16.77;;;15.87;;
3050;SDS011;1535;51.098;6.414;2023-04-25T08:42:51;18.80;;;17.43;;
3050;SDS011;1535;51.098;6.414;2023-04-25T08:45:19;19.53;;;17.60;;
3050;SDS011;1535;51.098;6.414;2023-04-25T08:47:47;18.70;;;17.50;;
3050;SDS011;1535;51.098;6.414;2023-04-25T08:50:17;18.50;;;17.40;;
3050;SDS011;1535;51.098;6.414;2023-04-25T08:52:46;17.87;;;16.97;;
3050;SDS011;1535;51.098;6.414;2023-04-25T08:55:14;17.43;;;16.53;;
3050;SDS011;1535;51.098;6.414;2023-04-25T08:57:42;19.03;;;17.77;;
3050;SDS011;1535;51.098;6.414;2023-04-25T09:00:11;18.10;;;17.20;;
3050;SDS011;1535;51.098;6.414;2023-04-25T09:02:39;18.47;;;17.47;;
3050;SDS011;1535;51.098;6.414;2023-04-25T09:05:07;18.63;;;17.73;;
3050;SDS011;1535;51.098;6.414;2023-04-25T09:07:37;18.63;;;17.23;;
3050;SDS011;1535;51.098;6.414;2023-04-25T09:10:04;17.60;;;16.80;;
3050;SDS011;1535;51.098;6.414;2023-04-25T09:12:32;17.67;;;16.77;;
3050;SDS011;1535;51.098;6.414;2023-04-25T09:15:03;17.03;;;16.23;;
3050;SDS011;1535;51.098;6.414;2023-04-25T09:17:32;17.20;;;16.33;;
3050;SDS011;1535;51.098;6.414;2023-04-25T09:20:06;17.37;;;16.33;;
3050;SDS011;1535;51.098;6.414;2023-04-25T09:22:34;18.63;;;17.23;;
3050;SDS011;1535;51.098;6.414;2023-04-25T09:25:03;19.10;;;17.60;;
3050;SDS011;1535;51.098;6.414;2023-04-25T09:27:34;17.43;;;16.50;;
3050;SDS011;1535;51.098;6.414;2023-04-25T09:30:01;18.37;;;17.07;;
3050;SDS011;1535;51.098;6.414;2023-04-25T09:32:28;18.87;;;17.87;;
3050;SDS011;1535;51.098;6.414;2023-04-25T09:34:56;20.43;;;17.13;;
3050;SDS011;1535;51.098;6.414;2023-04-25T09:37:23;18.10;;;17.23;;
3050;SDS011;1535;51.098;6.414;2023-04-25T09:39:52;17.03;;;16.23;;
3050;SDS011;1535;51.098;6.414;2023-04-25T09:42:22;19.50;;;18.17;;
3050;SDS011;1535;51.098;6.414;2023-04-25T09:44:51;18.27;;;17.37;;
3050;SDS011;1535;51.098;6.414;2023-04-25T09:47:18;17.50;;;16.40;;
3050;SDS011;1535;51.098;6.414;2023-04-25T09:49:47;18.60;;;17.60;;
3050;SDS011;1535;51.098;6.414;2023-04-25T09:52:15;18.10;;;17.20;;
3050;SDS011;1535;51.098;6.414;2023-04-25T09:54:43;18.30;;;16.97;;
3050;SDS011;1535;51.098;6.414;2023-04-25T09:57:12;19.37;;;17.93;;
3050;SDS011;1535;51.098;6.414;2023-04-25T09:59:44;18.80;;;17.60;;
3050;SDS011;1535;51.098;6.414;2023-04-25T10:02:13;17.70;;;16.83;;
3050;SDS011;1535;51.098;6.414;2023-04-25T10:04:42;17.37;;;16.57;;
3050;SDS011;1535;51.098;6.414;2023-04-25T10:07:13;18.00;;;17.10;;
3050;SDS011;1535;51.098;6.414;2023-04-25T10:09:42;18.87;;;17.87;;
3050;SDS011;1535;51.098;6.414;2023-04-25T10:12:12;19.27;;;18.17;;
3050;SDS011;1535;51.098;6.414;2023-04-25T10:14:39;19.53;;;18.50;;
3050;SDS011;1535;51.098;6.414;2023-04-25T10:17:09;18.23;;;17.23;;
3050;SDS011;1535;51.098;6.414;2023-04-25T10:19:37;17.87;;;16.97;;
3050;SDS011;1535;51.098;6.414;2023-04-25T10:22:06;20.43;;;18.60;;
3050;SDS011;1535;51.098;6.414;2023-04-25T10:24:35;17.50;;;16.70;;
3050;SDS011;1535;51.098;6.414;2023-04-25T10:27:02;17.60;;;16.80;;
3050;SDS011;1535;51.098;6.414;2023-04-25T10:29:30;18.63;;;17.33;;
3050;SDS011;1535;51.098;6.414;2023-04-25T10:31:58;17.93;;;17.10;;
3050;SDS011;1535;51.098;6.414;2023-04-25T10:34:37;18.90;;;17.60;;
3050;SDS011;1535;51.098;6.414;2023-04-25T10:37:04;17.57;;;16.67;;
3050;SDS011;1535;51.098;6.414;2023-04-25T10:39:34;17.40;;;16.60;;
3050;SDS011;1535;51.098;6.414;2023-04-25T10:42:02;17.47;;;16.57;;
3050;SDS011;1535;51.098;6.414;2023-04-25T10:44:29;18.77;;;17.77;;
3050;SDS011;1535;51.098;6.414;2023-04-25T10:46:58;19.13;;;18.10;;
3050;SDS011;1535;51.098;6.414;2023-04-25T10:49:29;17.20;;;16.40;;
3050;SDS011;1535;51.098;6.414;2023-04-25T10:52:12;17.60;;;16.70;;
3050;SDS011;1535;51.098;6.414;2023-04-25T10:54:41;17.40;;;16.57;;
3050;SDS011;1535;51.098;6.414;2023-04-25T10:59:57;17.33;;;16.43;;
3050;SDS011;1535;51.098;6.414;2023-04-25T11:02:26;17.70;;;16.80;;
3050;SDS011;1535;51.098;6.414;2023-04-25T11:04:53;18.70;;;17.70;;
3050;SDS011;1535;51.098;6.414;2023-04-25T11:07:26;17.57;;;16.67;;
3050;SDS011;1535;51.098;6.414;2023-04-25T11:09:58;16.93;;;16.13;;
3050;SDS011;1535;51.098;6.414;2023-04-25T11:12:29;17.40;;;16.60;;
3050;SDS011;1535;51.098;6.414;2023-04-25T11:15:01;18.20;;;17.30;;
3050;SDS011;1535;51.098;6.414;2023-04-25T11:17:29;18.53;;;17.63;;
3050;SDS011;1535;51.098;6.414;2023-04-25T11:19:57;19.00;;;17.90;;
3050;SDS011;1535;51.098;6.414;2023-04-25T11:22:25;18.33;;;17.43;;
3050;SDS011;1535;51.098;6.414;2023-04-25T11:24:53;17.83;;;17.03;;
3050;SDS011;1535;51.098;6.414;2023-04-25T11:27:20;18.13;;;17.33;;
3050;SDS011;1535;51.098;6.414;2023-04-25T11:29:49;18.13;;;17.33;;
3050;SDS011;1535;51.098;6.414;2023-04-25T11:32:17;19.33;;;17.70;;
3050;SDS011;1535;51.098;6.414;2023-04-25T11:34:44;19.47;;;18.47;;
3050;SDS011;1535;51.098;6.414;2023-04-25T11:37:12;18.93;;;18.03;;
3050;SDS011;1535;51.098;6.414;2023-04-25T11:39:43;19.70;;;18.50;;
3050;SDS011;1535;51.098;6.414;2023-04-25T11:42:12;18.80;;;17.90;;
3050;SDS011;1535;51.098;6.414;2023-04-25T11:44:39;18.07;;;17.27;;
3050;SDS011;1535;51.098;6.414;2023-04-25T11:47:06;18.83;;;17.83;;
3050;SDS011;1535;51.098;6.414;2023-04-25T11:49:33;18.60;;;17.60;;
3050;SDS011;1535;51.098;6.414;2023-04-25T11:52:01;17.77;;;16.97;;
3050;SDS011;1535;51.098;6.414;2023-04-25T11:54:27;18.37;;;17.17;;
3050;SDS011;1535;51.098;6.414;2023-04-25T11:56:56;17.97;;;16.90;;
3050;SDS011;1535;51.098;6.414;2023-04-25T11:59:24;17.73;;;16.60;;
3050;SDS011;1535;51.098;6.414;2023-04-25T12:01:53;17.73;;;16.83;;
3050;SDS011;1535;51.098;6.414;2023-04-25T12:04:21;17.80;;;16.90;;
3050;SDS011;1535;51.098;6.414;2023-04-25T12:06:49;17.50;;;16.50;;
3050;SDS011;1535;51.098;6.414;2023-04-25T12:09:17;17.67;;;16.67;;
3050;SDS011;1535;51.098;6.414;2023-04-25T12:11:45;17.37;;;16.47;;
3050;SDS011;1535;51.098;6.414;2023-04-25T12:14:20;17.27;;;16.47;;
3050;SDS011;1535;51.098;6.414;2023-04-25T12:16:49;17.43;;;16.53;;
3050;SDS011;1535;51.098;6.414;2023-04-25T12:19:18;17.73;;;16.93;;
3050;SDS011;1535;51.098;6.414;2023-04-25T12:21:46;16.80;;;16.00;;
3050;SDS011;1535;51.098;6.414;2023-04-25T12:24:14;17.80;;;16.97;;
3050;SDS011;1535;51.098;6.414;2023-04-25T12:26:49;16.43;;;15.73;;
3050;SDS011;1535;51.098;6.414;2023-04-25T12:29:19;17.20;;;16.30;;
3050;SDS011;1535;51.098;6.414;2023-04-25T12:31:47;18.43;;;17.37;;
3050;SDS011;1535;51.098;6.414;2023-04-25T12:34:16;18.13;;;16.87;;
3050;SDS011;1535;51.098;6.414;2023-04-25T12:36:43;18.50;;;17.70;;
3050;SDS011;1535;51.098;6.414;2023-04-25T12:39:14;17.13;;;16.37;;
3050;SDS011;1535;51.098;6.414;2023-04-25T12:41:41;18.07;;;16.90;;
3050;SDS011;1535;51.098;6.414;2023-04-25T12:44:08;16.87;;;16.17;;
3050;SDS011;1535;51.098;6.414;2023-04-25T12:46:37;18.00;;;17.17;;
3050;SDS011;1535;51.098;6.414;2023-04-25T12:49:04;18.17;;;17.20;;
3050;SDS011;1535;51.098;6.414;2023-04-25T12:51:33;18.20;;;17.00;;
3050;SDS011;1535;51.098;6.414;2023-04-25T12:54:02;17.40;;;16.50;;
3050;SDS011;1535;51.098;6.414;2023-04-25T12:56:30;17.40;;;16.60;;
3050;SDS011;1535;51.098;6.414;2023-04-25T12:58:57;17.67;;;16.87;;
3050;SDS011;1535;51.098;6.414;2023-04-25T13:01:25;16.70;;;16.00;;
3050;SDS011;1535;51.098;6.414;2023-04-25T13:03:54;17.50;;;16.70;;
3050;SDS011;1535;51.098;6.414;2023-04-25T13:06:21;17.70;;;16.80;;
3050;SDS011;1535;51.098;6.414;2023-04-25T13:08:48;17.77;;;16.97;;
3050;SDS011;1535;51.098;6.414;2023-04-25T13:11:15;18.20;;;17.20;;
3050;SDS011;1535;51.098;6.414;2023-04-25T13:13:42;17.33;;;16.53;;
3050;SDS011;1535;51.098;6.414;2023-04-25T13:16:10;17.00;;;16.20;;
3050;SDS011;1535;51.098;6.414;2023-04-25T13:18:39;18.53;;;17.40;;
3050;SDS011;1535;51.098;6.414;2023-04-25T13:21:08;17.57;;;16.77;;
3050;SDS011;1535;51.098;6.414;2023-04-25T13:23:36;17.97;;;16.63;;
3050;SDS011;1535;51.098;6.414;2023-04-25T13:26:04;18.27;;;17.27;;
3050;SDS011;1535;51.098;6.414;2023-04-25T13:28:31;18.57;;;17.20;;
3050;SDS011;1535;51.098;6.414;2023-04-25T13:30:58;17.60;;;16.80;;
3050;SDS011;1535;51.098;6.414;2023-04-25T13:33:25;17.23;;;16.20;;
3050;SDS011;1535;51.098;6.414;2023-04-25T13:35:52;16.50;;;15.80;;
3050;SDS011;1535;51.098;6.414;2023-04-25T13:38:23;17.47;;;16.67;;
3050;SDS011;1535;51.098;6.414;2023-04-25T13:40:50;19.13;;;17.60;;
3050;SDS011;1535;51.098;6.414;2023-04-25T13:43:18;17.07;;;16.17;;
3050;SDS011;1535;51.098;6.414;2023-04-25T13:45:46;17.00;;;16.20;;
3050;SDS011;1535;51.098;6.414;2023-04-25T13:48:14;17.27;;;16.40;;
3050;SDS011;1535;51.098;6.414;2023-04-25T13:50:40;18.73;;;17.53;;
3050;SDS011;1535;51.098;6.414;2023-04-25T13:53:07;16.30;;;15.60;;
3050;SDS011;1535;51.098;6.414;2023-04-25T13:55:36;16.80;;;16.00;;
3050;SDS011;1535;51.098;6.414;2023-04-25T13:58:03;16.07;;;15.37;;
3050;SDS011;1535;51.098;6.414;2023-04-25T14:00:32;16.07;;;15.37;;
3050;SDS011;1535;51.098;6.414;2023-04-25T14:03:02;16.47;;;15.67;;
3050;SDS011;1535;51.098;6.414;2023-04-25T14:05:31;17.37;;;16.60;;
3050;SDS011;1535;51.098;6.414;2023-04-25T14:08:02;17.03;;;16.13;;
3050;SDS011;1535;51.098;6.414;2023-04-25T14:10:32;16.40;;;15.70;;
3050;SDS011;1535;51.098;6.414;2023-04-25T14:13:00;16.37;;;15.57;;
3050;SDS011;1535;51.098;6.414;2023-04-25T14:15:28;16.70;;;16.00;;
3050;SDS011;1535;51.098;6.414;2023-04-25T14:17:55;16.43;;;15.70;;
3050;SDS011;1535;51.098;6.414;2023-04-25T14:20:22;16.77;;;15.67;;
3050;SDS011;1535;51.098;6.414;2023-04-25T14:22:49;15.90;;;15.20;;
3050;SDS011;1535;51.098;6.414;2023-04-25T14:25:17;16.27;;;15.57;;
3050;SDS011;1535;51.098;6.414;2023-04-25T14:27:43;16.27;;;15.43;;
3050;SDS011;1535;51.098;6.414;2023-04-25T14:30:15;16.97;;;16.17;;
3050;SDS011;1535;51.098;6.414;2023-04-25T14:32:43;16.97;;;16.23;;
3050;SDS011;1535;51.098;6.414;2023-04-25T14:35:10;16.90;;;16.00;;
3050;SDS011;1535;51.098;6.414;2023-04-25T14:37:37;16.20;;;15.40;;
3050;SDS011;1535;51.098;6.414;2023-04-25T14:40:05;17.03;;;16.23;;
3050;SDS011;1535;51.098;6.414;2023-04-25T14:42:33;15.70;;;15.00;;
3050;SDS011;1535;51.098;6.414;2023-04-25T14:45:01;17.90;;;16.93;;
3050;SDS011;1535;51.098;6.414;2023-04-25T14:47:29;16.20;;;15.50;;
3050;SDS011;1535;51.098;6.414;2023-04-25T14:49:56;17.47;;;16.30;;
3050;SDS011;1535;51.098;6.414;2023-04-25T14:52:23;15.80;;;15.10;;
3050;SDS011;1535;51.098;6.414;2023-04-25T14:54:50;16.27;;;15.50;;
3050;SDS011;1535;51.098;6.414;2023-04-25T14:57:17;16.77;;;15.87;;
3050;SDS011;1535;51.098;6.414;2023-04-25T14:59:44;16.73;;;15.93;;
3050;SDS011;1535;51.098;6.414;2023-04-25T15:02:12;17.23;;;16.33;;
3050;SDS011;1535;51.098;6.414;2023-04-25T15:04:41;17.43;;;16.50;;
3050;SDS011;1535;51.098;6.414;2023-04-25T15:07:08;16.87;;;15.93;;